sensor_id;sensor_type;location;lat;lon;timestamp;P1;durP1;ratioP1;P2;durP2;ratioP2
7941;SDS011;4016;50.758;7.150;2023-04-01T00:04:42;1.03;;;0.60;;
7941;SDS011;4016;50.758;7.150;2023-04-01T00:09:43;0.93;;;0.90;;
7941;SDS011;4016;50.758;7.150;2023-04-01T00:14:43;0.87;;;0.80;;
7941;SDS011;4016;50.758;7.150;2023-04-01T00:19:44;1.33;;;1.23;;
7941;SDS011;4016;50.758;7.150;2023-04-01T00:24:44;0.70;;;0.67;;
7941;SDS011;4016;50.758;7.150;2023-04-01T00:29:45;0.63;;;0.63;;
7941;SDS011;4016;50.758;7.150;2023-04-01T00:34:49;1.10;;;0.80;;
7941;SDS011;4016;50.758;7.150;2023-04-01T00:39:51;2.33;;;0.73;;
7941;SDS011;4016;50.758;7.150;2023-04-01T00:44:52;0.57;;;0.57;;
7941;SDS011;4016;50.758;7.150;2023-04-01T00:49:54;1.40;;;0.80;;
7941;SDS011;4016;50.758;7.150;2023-04-01T00:54:56;1.67;;;0.93;;
7941;SDS011;4016;50.758;7.150;2023-04-01T00:59:59;2.10;;;0.70;;
7941;SDS011;4016;50.758;7.150;2023-04-01T01:04:59;0.67;;;0.57;;
7941;SDS011;4016;50.758;7.150;2023-04-01T01:15:19;2.00;;;0.87;;
7941;SDS011;4016;50.758;7.150;2023-04-01T01:20:35;1.23;;;0.67;;
7941;SDS011;4016;50.758;7.150;2023-04-01T01:25:50;1.47;;;1.20;;
7941;SDS011;4016;50.758;7.150;2023-04-01T01:31:20;1.47;;;1.20;;
7941;SDS011;4016;50.758;7.150;2023-04-01T01:36:29;1.47;;;1.10;;
7941;SDS011;4016;50.758;7.150;2023-04-01T01:41:34;1.27;;;1.17;;
7941;SDS011;4016;50.758;7.150;2023-04-01T01:46:37;0.60;;;0.60;;
7941;SDS011;4016;50.758;7.150;2023-04-01T01:51:40;0.47;;;0.47;;
7941;SDS011;4016;50.758;7.150;2023-04-01T01:56:44;0.50;;;0.50;;
7941;SDS011;4016;50.758;7.150;2023-04-01T02:01:49;1.97;;;1.17;;
7941;SDS011;4016;50.758;7.150;2023-04-01T02:06:53;1.50;;;0.70;;
7941;SDS011;4016;50.758;7.150;2023-04-01T02:12:07;0.57;;;0.57;;
7941;SDS011;4016;50.758;7.150;2023-04-01T02:17:11;1.63;;;0.60;;
7941;SDS011;4016;50.758;7.150;2023-04-01T02:22:16;0.67;;;0.63;;
7941;SDS011;4016;50.758;7.150;2023-04-01T02:27:20;1.30;;;0.60;;
7941;SDS011;4016;50.758;7.150;2023-04-01T02:32:21;0.50;;;0.50;;
7941;SDS011;4016;50.758;7.150;2023-04-01T02:37:22;0.30;;;0.30;;
7941;SDS011;4016;50.758;7.150;2023-04-01T02:42:23;0.60;;;0.60;;
7941;SDS011;4016;50.758;7.150;2023-04-01T02:47:23;0.53;;;0.53;;
7941;SDS011;4016;50.758;7.150;2023-04-01T02:52:24;0.73;;;0.70;;
7941;SDS011;4016;50.758;7.150;2023-04-01T02:57:25;0.57;;;0.57;;
7941;SDS011;4016;50.758;7.150;2023-04-01T03:02:25;0.43;;;0.43;;
7941;SDS011;4016;50.758;7.150;2023-04-01T03:07:26;0.80;;;0.80;;
7941;SDS011;4016;50.758;7.150;2023-04-01T03:12:27;0.40;;;0.40;;
7941;SDS011;4016;50.758;7.150;2023-04-01T03:17:27;0.67;;;0.67;;
7941;SDS011;4016;50.758;7.150;2023-04-01T03:22:27;0.93;;;0.70;;
7941;SDS011;4016;50.758;7.150;2023-04-01T03:27:28;3.20;;;0.77;;
7941;SDS011;4016;50.758;7.150;2023-04-01T03:32:28;2.17;;;0.97;;
7941;SDS011;4016;50.758;7.150;2023-04-01T03:37:28;0.50;;;0.50;;
7941;SDS011;4016;50.758;7.150;2023-04-01T03:42:29;0.70;;;0.70;;
7941;SDS011;4016;50.758;7.150;2023-04-01T03:47:31;0.47;;;0.47;;
7941;SDS011;4016;50.758;7.150;2023-04-01T03:52:31;0.40;;;0.40;;
7941;SDS011;4016;50.758;7.150;2023-04-01T03:57:32;0.50;;;0.47;;
7941;SDS011;4016;50.758;7.150;2023-04-01T04:02:33;0.20;;;0.20;;
7941;SDS011;4016;50.758;7.150;2023-04-01T04:07:34;0.30;;;0.30;;
7941;SDS011;4016;50.758;7.150;2023-04-01T04:12:35;0.83;;;0.83;;
7941;SDS011;4016;50.758;7.150;2023-04-01T04:17:35;0.40;;;0.40;;
7941;SDS011;4016;50.758;7.150;2023-04-01T04:22:36;0.40;;;0.40;;
7941;SDS011;4016;50.758;7.150;2023-04-01T04:27:36;0.40;;;0.30;;
7941;SDS011;4016;50.758;7.150;2023-04-01T04:32:37;0.27;;;0.27;;
7941;SDS011;4016;50.758;7.150;2023-04-01T04:37:37;0.30;;;0.30;;
7941;SDS011;4016;50.758;7.150;2023-04-01T04:42:37;0.80;;;0.80;;
7941;SDS011;4016;50.758;7.150;2023-04-01T04:47:38;0.50;;;0.50;;
7941;SDS011;4016;50.758;7.150;2023-04-01T04:52:38;1.60;;;0.93;;
7941;SDS011;4016;50.758;7.150;2023-04-01T04:57:38;0.30;;;0.30;;
7941;SDS011;4016;50.758;7.150;2023-04-01T05:02:39;0.20;;;0.20;;
7941;SDS011;4016;50.758;7.150;2023-04-01T05:07:39;0.40;;;0.40;;
7941;SDS011;4016;50.758;7.150;2023-04-01T05:12:40;0.30;;;0.30;;
7941;SDS011;4016;50.758;7.150;2023-04-01T05:17:40;1.07;;;0.30;;
7941;SDS011;4016;50.758;7.150;2023-04-01T05:22:41;0.63;;;0.63;;
7941;SDS011;4016;50.758;7.150;2023-04-01T05:27:42;0.30;;;0.30;;
7941;SDS011;4016;50.758;7.150;2023-04-01T05:32:42;0.30;;;0.30;;
7941;SDS011;4016;50.758;7.150;2023-04-01T05:37:43;1.53;;;0.30;;
7941;SDS011;4016;50.758;7.150;2023-04-01T05:42:44;0.20;;;0.20;;
7941;SDS011;4016;50.758;7.150;2023-04-01T05:47:45;0.50;;;0.47;;
7941;SDS011;4016;50.758;7.150;2023-04-01T05:52:46;0.40;;;0.40;;
7941;SDS011;4016;50.758;7.150;2023-04-01T05:57:46;0.30;;;0.30;;
7941;SDS011;4016;50.758;7.150;2023-04-01T06:02:49;0.53;;;0.53;;
7941;SDS011;4016;50.758;7.150;2023-04-01T06:07:50;0.37;;;0.37;;
7941;SDS011;4016;50.758;7.150;2023-04-01T06:18:25;0.53;;;0.53;;
7941;SDS011;4016;50.758;7.150;2023-04-01T06:55:59;0.87;;;0.60;;
7941;SDS011;4016;50.758;7.150;2023-04-01T07:01:04;0.90;;;0.83;;
7941;SDS011;4016;50.758;7.150;2023-04-01T07:06:16;0.77;;;0.77;;
7941;SDS011;4016;50.758;7.150;2023-04-01T07:11:35;0.90;;;0.90;;
7941;SDS011;4016;50.758;7.150;2023-04-01T07:26:41;1.30;;;0.90;;
7941;SDS011;4016;50.758;7.150;2023-04-01T07:31:45;0.67;;;0.60;;
7941;SDS011;4016;50.758;7.150;2023-04-01T07:52:55;1.30;;;1.20;;
7941;SDS011;4016;50.758;7.150;2023-04-01T08:03:48;0.87;;;0.87;;
7941;SDS011;4016;50.758;7.150;2023-04-01T08:25:10;0.90;;;0.90;;
7941;SDS011;4016;50.758;7.150;2023-04-01T08:30:26;0.97;;;0.97;;
7941;SDS011;4016;50.758;7.150;2023-04-01T08:41:37;0.50;;;0.50;;
7941;SDS011;4016;50.758;7.150;2023-04-01T08:52:35;1.03;;;1.03;;
7941;SDS011;4016;50.758;7.150;2023-04-01T08:57:43;1.17;;;0.97;;
7941;SDS011;4016;50.758;7.150;2023-04-01T09:13:59;2.37;;;0.67;;
7941;SDS011;4016;50.758;7.150;2023-04-01T09:19:20;0.57;;;0.57;;
7941;SDS011;4016;50.758;7.150;2023-04-01T09:24:52;0.30;;;0.30;;
7941;SDS011;4016;50.758;7.150;2023-04-01T09:35:36;0.77;;;0.77;;
7941;SDS011;4016;50.758;7.150;2023-04-01T10:22:56;0.73;;;0.73;;
7941;SDS011;4016;50.758;7.150;2023-04-01T10:28:16;1.00;;;1.00;;
7941;SDS011;4016;50.758;7.150;2023-04-01T10:33:57;0.70;;;0.70;;
7941;SDS011;4016;50.758;7.150;2023-04-01T10:39:38;0.50;;;0.50;;
7941;SDS011;4016;50.758;7.150;2023-04-01T10:45:00;0.67;;;0.67;;
7941;SDS011;4016;50.758;7.150;2023-04-01T10:50:18;0.93;;;0.93;;
7941;SDS011;4016;50.758;7.150;2023-04-01T10:55:37;0.77;;;0.77;;
7941;SDS011;4016;50.758;7.150;2023-04-01T11:01:07;1.13;;;1.03;;
7941;SDS011;4016;50.758;7.150;2023-04-01T11:17:07;0.87;;;0.87;;
7941;SDS011;4016;50.758;7.150;2023-04-01T11:28:16;1.03;;;0.93;;
7941;SDS011;4016;50.758;7.150;2023-04-01T11:54:53;1.10;;;1.10;;
7941;SDS011;4016;50.758;7.150;2023-04-01T12:11:09;1.63;;;1.27;;
7941;SDS011;4016;50.758;7.150;2023-04-01T12:26:58;1.50;;;1.40;;
7941;SDS011;4016;50.758;7.150;2023-04-01T12:32:12;1.20;;;1.20;;
7941;SDS011;4016;50.758;7.150;2023-04-01T12:48:21;0.90;;;0.90;;
7941;SDS011;4016;50.758;7.150;2023-04-01T12:59:08;1.00;;;1.00;;
7941;SDS011;4016;50.758;7.150;2023-04-01T13:09:45;0.67;;;0.67;;
7941;SDS011;4016;50.758;7.150;2023-04-01T13:36:49;1.10;;;1.00;;
7941;SDS011;4016;50.758;7.150;2023-04-01T14:25:30;1.10;;;1.00;;
7941;SDS011;4016;50.758;7.150;2023-04-01T14:41:28;1.80;;;1.53;;
7941;SDS011;4016;50.758;7.150;2023-04-01T14:46:52;1.13;;;1.13;;
7941;SDS011;4016;50.758;7.150;2023-04-01T14:57:31;2.00;;;1.80;;
7941;SDS011;4016;50.758;7.150;2023-04-01T15:12:41;1.87;;;1.77;;
7941;SDS011;4016;50.758;7.150;2023-04-01T15:23:35;1.50;;;1.40;;
7941;SDS011;4016;50.758;7.150;2023-04-01T15:55:30;1.83;;;1.73;;
7941;SDS011;4016;50.758;7.150;2023-04-01T16:00:47;3.57;;;1.77;;
7941;SDS011;4016;50.758;7.150;2023-04-01T16:37:29;2.83;;;2.63;;
7941;SDS011;4016;50.758;7.150;2023-04-01T16:42:52;1.80;;;1.70;;
7941;SDS011;4016;50.758;7.150;2023-04-01T16:47:56;3.33;;;2.67;;
7941;SDS011;4016;50.758;7.150;2023-04-01T16:53:14;1.27;;;1.27;;
7941;SDS011;4016;50.758;7.150;2023-04-01T16:58:26;1.00;;;1.00;;
7941;SDS011;4016;50.758;7.150;2023-04-01T17:03:45;1.63;;;1.53;;
7941;SDS011;4016;50.758;7.150;2023-04-01T17:19:36;1.60;;;1.50;;
7941;SDS011;4016;50.758;7.150;2023-04-01T17:24:53;2.13;;;2.03;;
7941;SDS011;4016;50.758;7.150;2023-04-01T17:40:39;2.30;;;2.10;;
7941;SDS011;4016;50.758;7.150;2023-04-01T17:45:53;1.70;;;1.60;;
7941;SDS011;4016;50.758;7.150;2023-04-01T18:01:36;2.20;;;2.10;;
7941;SDS011;4016;50.758;7.150;2023-04-01T18:22:44;2.07;;;1.97;;
7941;SDS011;4016;50.758;7.150;2023-04-01T18:27:46;3.00;;;2.60;;
7941;SDS011;4016;50.758;7.150;2023-04-01T18:32:51;2.53;;;2.33;;
7941;SDS011;4016;50.758;7.150;2023-04-01T18:43:08;2.30;;;2.13;;
7941;SDS011;4016;50.758;7.150;2023-04-01T18:48:33;2.60;;;2.40;;
7941;SDS011;4016;50.758;7.150;2023-04-01T18:53:57;2.67;;;2.43;;
7941;SDS011;4016;50.758;7.150;2023-04-01T18:59:06;2.90;;;2.63;;
7941;SDS011;4016;50.758;7.150;2023-04-01T19:09:25;3.27;;;2.97;;
7941;SDS011;4016;50.758;7.150;2023-04-01T19:25:15;3.33;;;3.03;;
7941;SDS011;4016;50.758;7.150;2023-04-01T19:35:44;2.83;;;2.57;;
7941;SDS011;4016;50.758;7.150;2023-04-01T19:40:54;3.50;;;3.20;;
7941;SDS011;4016;50.758;7.150;2023-04-01T19:56:59;3.53;;;3.23;;
7941;SDS011;4016;50.758;7.150;2023-04-01T20:07:08;2.67;;;2.47;;
7941;SDS011;4016;50.758;7.150;2023-04-01T20:12:40;3.13;;;2.83;;
7941;SDS011;4016;50.758;7.150;2023-04-01T20:17:51;2.70;;;2.50;;
7941;SDS011;4016;50.758;7.150;2023-04-01T20:23:21;3.23;;;2.90;;
7941;SDS011;4016;50.758;7.150;2023-04-01T20:28:32;2.67;;;2.47;;
7941;SDS011;4016;50.758;7.150;2023-04-01T20:39:04;3.40;;;2.60;;
7941;SDS011;4016;50.758;7.150;2023-04-01T20:55:16;2.30;;;2.10;;
7941;SDS011;4016;50.758;7.150;2023-04-01T21:32:36;2.40;;;2.20;;
7941;SDS011;4016;50.758;7.150;2023-04-01T21:48:15;1.93;;;1.83;;
7941;SDS011;4016;50.758;7.150;2023-04-01T21:58:30;2.23;;;1.73;;
7941;SDS011;4016;50.758;7.150;2023-04-01T22:04:12;2.37;;;1.87;;
7941;SDS011;4016;50.758;7.150;2023-04-01T22:14:42;3.67;;;2.47;;
7941;SDS011;4016;50.758;7.150;2023-04-01T22:19:53;2.07;;;1.87;;
7941;SDS011;4016;50.758;7.150;2023-04-01T22:25:08;2.17;;;1.93;;
7941;SDS011;4016;50.758;7.150;2023-04-01T22:35:28;1.53;;;1.50;;
7941;SDS011;4016;50.758;7.150;2023-04-01T22:40:42;1.13;;;1.13;;
7941;SDS011;4016;50.758;7.150;2023-04-01T22:46:18;1.27;;;1.20;;
7941;SDS011;4016;50.758;7.150;2023-04-01T22:56:47;1.83;;;1.53;;
7941;SDS011;4016;50.758;7.150;2023-04-01T23:02:03;1.53;;;1.43;;
7941;SDS011;4016;50.758;7.150;2023-04-01T23:07:19;1.77;;;1.67;;
7941;SDS011;4016;50.758;7.150;2023-04-01T23:12:31;1.30;;;1.20;;
7941;SDS011;4016;50.758;7.150;2023-04-01T23:17:35;1.83;;;1.73;;
7941;SDS011;4016;50.758;7.150;2023-04-01T23:28:19;1.47;;;1.43;;
7941;SDS011;4016;50.758;7.150;2023-04-01T23:33:30;2.67;;;2.47;;
7941;SDS011;4016;50.758;7.150;2023-04-01T23:38:33;2.70;;;2.60;;
7941;SDS011;4016;50.758;7.150;2023-04-01T23:43:36;1.03;;;1.03;;
7941;SDS011;4016;50.758;7.150;2023-04-01T23:48:40;1.17;;;1.17;;
7941;SDS011;4016;50.758;7.150;2023-04-01T23:53:44;1.70;;;1.60;;
7941;SDS011;4016;50.758;7.150;2023-04-01T23:58:48;1.07;;;1.03;;
